createdAt,value
2018-12-29T00:03:44.364Z,37.78
2018-12-29T00:06:32.368Z,37.88
2018-12-29T00:09:20.599Z,37.58
2018-12-29T00:12:08.896Z,36.00
2018-12-29T00:14:56.928Z,36.40
2018-12-29T00:17:45.237Z,37.77
2018-12-29T00:20:33.228Z,37.17
2018-12-29T00:23:21.473Z,37.83
2018-12-29T00:26:10.386Z,37.20
2018-12-29T00:28:58.384Z,37.30
2018-12-29T00:31:46.890Z,37.78
2018-12-29T00:34:34.854Z,36.85
2018-12-29T00:37:22.895Z,36.25
2018-12-29T00:40:03.657Z,37.78
2018-12-29T00:42:44.808Z,35.23
2018-12-29T00:45:25.291Z,36.83
2018-12-29T00:48:06.150Z,36.95
2018-12-29T00:50:47.503Z,38.28
2018-12-29T00:53:28.574Z,38.00
2018-12-29T00:56:09.782Z,38.70
2018-12-29T00:58:50.671Z,37.07
2018-12-29T01:01:31.651Z,36.42
2018-12-29T01:04:12.645Z,37.67
2018-12-29T01:06:53.575Z,37.10
2018-12-29T01:09:34.037Z,36.25
2018-12-29T01:12:14.881Z,36.33
2018-12-29T01:14:56.047Z,36.00
2018-12-29T01:17:36.433Z,35.43
2018-12-29T01:20:17.011Z,35.90
2018-12-29T01:22:57.437Z,35.25
2018-12-29T01:25:38.241Z,34.40
2018-12-29T01:28:20.537Z,34.92
2018-12-29T01:31:01.497Z,34.30
2018-12-29T01:33:42.636Z,34.03
2018-12-29T01:36:23.679Z,34.35
2018-12-29T01:39:04.748Z,33.95
2018-12-29T01:41:45.727Z,34.50
2018-12-29T01:44:26.730Z,34.53
2018-12-29T01:47:07.536Z,32.88
2018-12-29T01:49:48.320Z,34.50
2018-12-29T01:52:29.665Z,34.20
2018-12-29T01:55:10.192Z,34.58
2018-12-29T01:57:50.952Z,34.55
2018-12-29T02:00:31.760Z,35.40
2018-12-29T02:03:12.279Z,35.38
2018-12-29T02:05:53.438Z,34.70
2018-12-29T02:08:34.259Z,34.40
2018-12-29T02:11:15.107Z,35.25
2018-12-29T02:13:55.990Z,34.88
2018-12-29T02:16:37.246Z,35.23
2018-12-29T02:19:18.767Z,35.40
2018-12-29T02:22:00.142Z,35.00
2018-12-29T02:24:41.053Z,35.13
2018-12-29T02:27:21.857Z,35.52
2018-12-29T02:30:02.457Z,35.75
2018-12-29T02:32:43.412Z,35.50
2018-12-29T02:35:24.648Z,35.20
2018-12-29T02:38:05.565Z,35.83
2018-12-29T02:40:46.057Z,35.68
2018-12-29T02:43:26.511Z,36.65
2018-12-29T02:46:07.689Z,36.38
2018-12-29T02:48:48.660Z,35.23
2018-12-29T02:51:29.657Z,36.63
2018-12-29T02:54:10.575Z,35.93
2018-12-29T02:56:51.781Z,35.15
2018-12-29T02:59:32.811Z,35.28
2018-12-29T03:02:14.354Z,35.23
2018-12-29T03:04:54.895Z,35.40
2018-12-29T03:07:35.596Z,36.35
2018-12-29T03:10:16.555Z,34.90
2018-12-29T03:12:57.303Z,35.15
2018-12-29T03:15:41.542Z,35.03
2018-12-29T03:18:20.203Z,36.10
2018-12-29T03:21:01.302Z,35.43
2018-12-29T03:23:42.196Z,35.83
2018-12-29T03:26:22.995Z,36.55
2018-12-29T03:29:03.816Z,36.35
2018-12-29T03:31:44.729Z,37.10
2018-12-29T03:34:25.471Z,36.90
2018-12-29T03:37:06.672Z,37.80
2018-12-29T03:39:47.920Z,37.45
2018-12-29T03:42:29.180Z,37.90
2018-12-29T03:45:09.788Z,36.20
2018-12-29T03:47:50.705Z,37.40
2018-12-29T03:50:31.892Z,36.80
2018-12-29T03:53:12.689Z,37.73
2018-12-29T03:55:53.625Z,36.38
2018-12-29T03:58:34.033Z,36.63
2018-12-29T04:01:15.030Z,36.38
2018-12-29T04:03:56.555Z,37.17
2018-12-29T04:06:37.479Z,35.88
2018-12-29T04:09:18.385Z,36.28
2018-12-29T04:11:59.186Z,35.85
2018-12-29T04:14:39.977Z,36.08
2018-12-29T04:17:21.439Z,36.53
2018-12-29T04:20:02.390Z,37.05
2018-12-29T04:22:42.921Z,36.45
2018-12-29T04:25:25.413Z,35.97
2018-12-29T04:28:06.439Z,37.78
2018-12-29T04:30:47.546Z,34.60
2018-12-29T04:33:28.793Z,36.88
2018-12-29T04:36:09.942Z,35.75
2018-12-29T04:38:50.876Z,35.53
2018-12-29T04:41:31.936Z,35.17
2018-12-29T04:44:12.308Z,35.20
2018-12-29T04:46:53.482Z,35.13
2018-12-29T04:49:34.853Z,36.17
2018-12-29T04:52:15.214Z,35.75
2018-12-29T04:54:55.866Z,36.50
2018-12-29T04:57:36.597Z,35.98
2018-12-29T05:00:17.804Z,35.55
2018-12-29T05:02:58.287Z,35.60
2018-12-29T05:05:38.903Z,35.28
2018-12-29T05:08:19.784Z,36.87
2018-12-29T05:11:00.743Z,35.50
2018-12-29T05:13:41.702Z,34.43
2018-12-29T05:16:23.255Z,35.65
2018-12-29T05:19:03.847Z,36.88
2018-12-29T05:21:44.148Z,36.57
2018-12-29T05:24:25.422Z,35.10
2018-12-29T05:27:06.287Z,36.53
2018-12-29T05:29:46.789Z,35.23
2018-12-29T05:32:27.824Z,34.63
2018-12-29T05:35:08.099Z,35.43
2018-12-29T05:37:49.079Z,33.20
2018-12-29T05:40:29.544Z,34.00
2018-12-29T05:43:10.596Z,34.05
2018-12-29T05:45:51.168Z,36.13
2018-12-29T05:48:32.079Z,37.05
2018-12-29T05:51:12.857Z,36.88
2018-12-29T05:53:53.807Z,34.18
2018-12-29T05:56:34.531Z,35.52
2018-12-29T05:59:15.211Z,36.28
2018-12-29T06:01:56.238Z,35.78
2018-12-29T06:04:36.971Z,35.70
2018-12-29T06:07:17.955Z,36.33
2018-12-29T06:10:02.024Z,35.52
2018-12-29T06:12:42.380Z,34.63
2018-12-29T06:15:23.192Z,35.15
2018-12-29T06:18:04.185Z,35.55
2018-12-29T06:20:45.020Z,35.87
2018-12-29T06:23:25.382Z,36.10
2018-12-29T06:26:06.156Z,35.43
2018-12-29T06:28:47.399Z,34.63
2018-12-29T06:31:28.490Z,35.67
2018-12-29T06:34:08.919Z,36.73
2018-12-29T06:36:49.936Z,35.50
2018-12-29T06:39:31.191Z,36.28
2018-12-29T06:42:12.343Z,34.27
2018-12-29T06:44:52.952Z,34.27
2018-12-29T06:47:33.931Z,35.70
2018-12-29T06:50:15.390Z,34.83
2018-12-29T06:52:56.244Z,35.23
2018-12-29T06:55:37.605Z,35.15
2018-12-29T06:58:18.713Z,36.28
2018-12-29T07:00:59.656Z,36.58
2018-12-29T07:03:40.360Z,34.70
2018-12-29T07:06:21.606Z,36.10
2018-12-29T07:09:02.358Z,34.60
2018-12-29T07:11:43.028Z,35.67
2018-12-29T07:14:23.543Z,36.58
2018-12-29T07:17:04.167Z,35.25
2018-12-29T07:19:45.124Z,36.23
2018-12-29T07:22:25.455Z,36.63
2018-12-29T07:25:06.726Z,36.38
2018-12-29T07:27:47.957Z,35.83
2018-12-29T07:30:28.448Z,36.00
2018-12-29T07:33:09.024Z,36.93
2018-12-29T07:35:50.056Z,35.70
2018-12-29T07:38:31.279Z,34.67
2018-12-29T07:41:12.666Z,35.85
2018-12-29T07:43:53.004Z,35.03
2018-12-29T07:46:33.527Z,34.50
2018-12-29T07:49:14.958Z,36.10
2018-12-29T07:51:56.006Z,34.90
2018-12-29T07:54:37.023Z,34.63
2018-12-29T07:57:17.995Z,36.10
2018-12-29T07:59:59.026Z,35.48
2018-12-29T08:02:39.884Z,35.83
2018-12-29T08:05:20.488Z,34.73
2018-12-29T08:08:01.856Z,35.48
2018-12-29T08:10:42.895Z,36.50
2018-12-29T08:13:23.781Z,37.10
2018-12-29T08:16:04.399Z,36.58
2018-12-29T08:18:44.897Z,36.15
2018-12-29T08:21:25.440Z,36.73
2018-12-29T08:24:06.805Z,36.40
2018-12-29T08:26:48.309Z,36.95
2018-12-29T08:29:29.003Z,36.53
2018-12-29T08:32:09.839Z,38.05
2018-12-29T08:34:50.294Z,36.53
2018-12-29T08:37:30.957Z,38.25
2018-12-29T08:40:12.084Z,38.20
2018-12-29T08:42:52.896Z,36.42
2018-12-29T08:45:33.855Z,38.65
2018-12-29T08:48:14.784Z,37.35
2018-12-29T08:50:55.936Z,38.40
2018-12-29T08:53:36.967Z,37.58
2018-12-29T08:56:18.129Z,36.98
2018-12-29T08:58:59.652Z,37.78
2018-12-29T09:01:41.147Z,39.25
2018-12-29T09:04:22.537Z,36.50
2018-12-29T09:07:03.898Z,36.23
2018-12-29T09:09:44.527Z,37.25
2018-12-29T09:12:25.612Z,38.17
2018-12-29T09:15:07.255Z,37.25
2018-12-29T09:17:48.388Z,37.03
2018-12-29T09:20:29.256Z,36.93
2018-12-29T09:23:10.736Z,37.48
2018-12-29T09:25:51.396Z,37.28
2018-12-29T09:28:31.799Z,39.30
2018-12-29T09:31:12.116Z,37.55
2018-12-29T09:33:53.288Z,36.70
2018-12-29T09:36:34.815Z,36.70
2018-12-29T09:39:15.533Z,37.88
2018-12-29T09:41:56.572Z,37.30
2018-12-29T09:44:37.455Z,36.50
2018-12-29T09:47:19.720Z,36.70
2018-12-29T09:50:01.230Z,36.40
2018-12-29T09:52:42.123Z,34.92
2018-12-29T09:55:22.735Z,35.63
2018-12-29T09:58:03.331Z,36.83
2018-12-29T10:00:43.719Z,35.58
2018-12-29T10:03:24.604Z,36.48
2018-12-29T10:06:05.264Z,34.70
2018-12-29T10:08:45.984Z,35.60
2018-12-29T10:11:27.308Z,36.03
2018-12-29T10:14:07.724Z,35.83
2018-12-29T10:16:48.639Z,37.35
2018-12-29T10:19:29.768Z,37.78
2018-12-29T10:22:10.316Z,39.90
2018-12-29T10:24:51.354Z,38.67
2018-12-29T10:27:32.673Z,36.00
2018-12-29T10:30:13.857Z,37.08
2018-12-29T10:32:55.051Z,37.13
2018-12-29T10:35:35.400Z,38.67
2018-12-29T10:38:16.257Z,34.95
2018-12-29T10:40:56.759Z,37.80
2018-12-29T10:43:37.652Z,34.98
2018-12-29T10:46:17.959Z,36.42
2018-12-29T10:48:59.272Z,38.20
2018-12-29T10:51:39.788Z,37.03
2018-12-29T10:54:20.408Z,35.95
2018-12-29T10:57:01.106Z,34.85
2018-12-29T10:59:41.964Z,35.43
2018-12-29T11:02:22.996Z,34.78
2018-12-29T11:05:03.615Z,35.83
2018-12-29T11:07:44.302Z,35.65
2018-12-29T11:10:25.306Z,35.57
2018-12-29T11:13:06.043Z,37.08
2018-12-29T11:15:47.044Z,35.08
2018-12-29T11:18:27.913Z,34.60
2018-12-29T11:21:09.405Z,34.30
2018-12-29T11:23:50.448Z,34.05
2018-12-29T11:26:31.388Z,34.98
2018-12-29T11:29:12.263Z,34.18
2018-12-29T11:31:52.798Z,33.88
2018-12-29T11:34:33.676Z,33.65
2018-12-29T11:37:14.304Z,33.08
2018-12-29T11:39:55.132Z,33.80
2018-12-29T11:42:36.191Z,32.63
2018-12-29T11:45:16.904Z,32.75
2018-12-29T11:47:57.793Z,32.88
2018-12-29T11:50:39.083Z,32.08
2018-12-29T11:53:20.620Z,34.00
2018-12-29T11:56:02.053Z,32.95
2018-12-29T11:58:43.404Z,35.70
2018-12-29T12:01:24.305Z,38.28
2018-12-29T12:04:05.545Z,33.18
2018-12-29T12:06:46.320Z,34.23
2018-12-29T12:09:27.348Z,33.50
2018-12-29T12:12:08.528Z,34.35
2018-12-29T12:14:49.477Z,34.35
2018-12-29T12:17:30.219Z,33.63
2018-12-29T12:20:11.116Z,34.85
2018-12-29T12:22:51.977Z,34.17
2018-12-29T12:25:33.123Z,35.07
2018-12-29T12:28:14.856Z,33.80
2018-12-29T12:30:44.097Z,35.40
2018-12-29T12:33:24.711Z,36.20
2018-12-29T12:36:05.848Z,33.33
2018-12-29T12:38:47.506Z,32.33
2018-12-29T12:41:28.063Z,35.83
2018-12-29T12:50:07.269Z,33.53
2018-12-29T12:52:48.487Z,32.53
2018-12-29T12:55:29.840Z,33.35
2018-12-29T12:58:10.603Z,35.92
2018-12-29T13:00:51.765Z,32.98
2018-12-29T13:03:32.635Z,34.40
2018-12-29T13:06:13.484Z,32.38
2018-12-29T13:08:54.727Z,32.78
2018-12-29T13:11:35.210Z,32.23
2018-12-29T13:14:15.964Z,32.03
2018-12-29T13:16:56.925Z,32.67
2018-12-29T13:19:37.838Z,32.78
2018-12-29T13:22:19.269Z,33.13
2018-12-29T13:24:59.887Z,34.55
2018-12-29T13:27:40.897Z,34.03
2018-12-29T13:30:21.707Z,36.35
2018-12-29T13:33:02.672Z,36.68
2018-12-29T13:35:43.950Z,33.42
2018-12-29T13:38:24.805Z,33.42
2018-12-29T13:41:06.129Z,35.43
2018-12-29T13:43:47.059Z,32.00
2018-12-29T13:46:27.772Z,35.00
2018-12-29T13:49:08.772Z,32.73
2018-12-29T13:51:49.399Z,31.45
2018-12-29T13:54:30.239Z,33.60
2018-12-29T13:57:11.377Z,34.25
2018-12-29T13:59:52.111Z,32.85
2018-12-29T14:02:32.538Z,32.23
2018-12-29T14:05:13.463Z,33.77
2018-12-29T14:07:54.452Z,33.78
2018-12-29T14:10:35.671Z,33.48
2018-12-29T14:13:16.028Z,32.65
2018-12-29T14:15:56.859Z,33.15
2018-12-29T14:18:37.899Z,32.38
2018-12-29T14:21:18.327Z,32.78
2018-12-29T14:23:59.427Z,34.95
2018-12-29T14:26:40.405Z,40.15
2018-12-29T14:29:21.197Z,35.28
2018-12-29T14:32:01.934Z,32.60
2018-12-29T14:34:42.785Z,32.67
2018-12-29T14:37:24.075Z,31.17
2018-12-29T14:40:05.253Z,31.63
2018-12-29T14:42:46.272Z,34.00
2018-12-29T14:45:26.976Z,32.25
2018-12-29T14:48:07.820Z,40.08
2018-12-29T14:50:48.567Z,33.55
2018-12-29T14:53:29.308Z,34.05
2018-12-29T14:56:10.648Z,33.73
2018-12-29T14:58:51.245Z,32.67
2018-12-29T15:01:32.183Z,33.63
2018-12-29T15:04:12.632Z,32.33
2018-12-29T15:06:53.344Z,32.90
2018-12-29T15:09:33.887Z,33.08
2018-12-29T15:12:14.800Z,32.00
2018-12-29T15:14:55.636Z,31.62
2018-12-29T15:17:36.794Z,31.90
2018-12-29T15:20:18.352Z,32.67
2018-12-29T15:22:58.991Z,30.48
2018-12-29T15:25:39.579Z,30.37
2018-12-29T15:28:20.388Z,31.82
2018-12-29T15:31:01.311Z,31.50
2018-12-29T15:33:42.618Z,31.93
2018-12-29T15:36:24.152Z,31.40
2018-12-29T15:39:04.939Z,32.00
2018-12-29T15:41:46.140Z,30.43
2018-12-29T15:44:26.920Z,30.77
2018-12-29T15:47:07.688Z,30.52
2018-12-29T15:49:48.475Z,30.57
2018-12-29T15:52:17.279Z,31.05
2018-12-29T15:55:07.103Z,30.52
2018-12-29T15:57:55.680Z,29.50
2018-12-29T16:00:43.671Z,30.00
2018-12-29T16:03:33.362Z,29.90
2018-12-29T16:06:21.327Z,29.63
2018-12-29T16:09:09.535Z,30.60
2018-12-29T16:11:59.199Z,31.00
2018-12-29T16:14:47.568Z,28.75
2018-12-29T16:20:30.498Z,27.77
2018-12-29T16:23:14.691Z,27.65
2018-12-29T16:25:55.339Z,28.27
2018-12-29T16:28:36.299Z,27.63
2018-12-29T16:31:17.274Z,28.12
2018-12-29T16:33:58.193Z,28.27
2018-12-29T16:36:39.797Z,28.02
2018-12-29T16:39:09.044Z,28.57
2018-12-29T16:41:57.359Z,27.65
2018-12-29T16:44:45.355Z,27.32
2018-12-29T16:47:33.791Z,28.30
2018-12-29T16:50:22.046Z,26.85
2018-12-29T16:53:10.247Z,27.93
2018-12-29T16:55:58.472Z,27.32
2018-12-29T16:58:46.471Z,27.73
2018-12-29T17:01:34.546Z,29.12
2018-12-29T17:04:22.746Z,28.65
2018-12-29T17:07:10.833Z,28.12
2018-12-29T17:09:59.223Z,28.77
2018-12-29T17:12:47.431Z,28.92
2018-12-29T17:15:35.743Z,29.17
2018-12-29T17:18:25.428Z,28.32
2018-12-29T17:21:13.447Z,29.07
2018-12-29T17:24:01.402Z,30.08
2018-12-29T17:26:49.367Z,30.32
2018-12-29T17:29:37.342Z,28.60
2018-12-29T17:32:25.537Z,28.13
2018-12-29T17:35:06.899Z,28.98
2018-12-29T17:37:47.672Z,28.62
2018-12-29T17:40:28.773Z,28.55
2018-12-29T17:43:09.960Z,27.52
2018-12-29T17:45:50.796Z,28.50
2018-12-29T17:48:31.384Z,27.05
2018-12-29T17:51:12.654Z,27.32
2018-12-29T17:53:53.310Z,30.27
2018-12-29T17:56:34.016Z,29.20
2018-12-29T17:59:14.589Z,29.57
2018-12-29T18:01:55.294Z,46.10
2018-12-29T18:04:35.860Z,29.98
2018-12-29T18:07:16.914Z,30.97
2018-12-29T18:09:57.766Z,28.20
2018-12-29T18:12:38.926Z,28.87
2018-12-29T18:15:19.266Z,31.55
2018-12-29T18:18:00.340Z,32.35
2018-12-29T18:20:41.231Z,28.47
2018-12-29T18:23:22.424Z,30.50
2018-12-29T18:26:03.348Z,28.42
2018-12-29T18:28:44.092Z,28.23
2018-12-29T18:31:24.816Z,27.37
2018-12-29T18:34:05.688Z,27.98
2018-12-29T18:36:46.344Z,28.12
2018-12-29T18:39:26.879Z,28.25
2018-12-29T18:42:07.724Z,28.47
2018-12-29T18:44:48.499Z,27.53
2018-12-29T18:47:29.015Z,29.00
2018-12-29T18:50:09.693Z,28.10
2018-12-29T18:52:50.599Z,27.48
2018-12-29T18:55:31.627Z,26.20
2018-12-29T18:58:12.844Z,27.55
2018-12-29T19:00:53.660Z,28.17
2018-12-29T19:03:35.139Z,27.90
2018-12-29T19:06:16.623Z,28.90
2018-12-29T19:08:57.942Z,30.17
2018-12-29T19:11:37.500Z,28.30
2018-12-29T19:14:25.871Z,29.93
2018-12-29T19:17:15.853Z,29.87
2018-12-29T19:20:04.632Z,30.82
2018-12-29T19:22:52.928Z,30.55
2018-12-29T19:25:40.929Z,30.25
2018-12-29T19:28:30.867Z,29.25
2018-12-29T19:31:19.108Z,29.97
2018-12-29T19:34:03.234Z,29.72
2018-12-29T19:36:44.004Z,29.92
2018-12-29T19:39:24.835Z,28.42
2018-12-29T19:42:06.417Z,28.90
2018-12-29T19:44:47.244Z,28.02
2018-12-29T19:47:28.260Z,28.27
2018-12-29T19:50:09.888Z,28.83
2018-12-29T19:52:38.690Z,26.53
2018-12-29T19:55:27.262Z,27.43
2018-12-29T19:58:15.545Z,27.48
2018-12-29T20:01:03.739Z,27.35
2018-12-29T20:03:52.012Z,26.30
2018-12-29T20:06:40.115Z,25.43
2018-12-29T20:09:28.455Z,25.65
2018-12-29T20:12:18.480Z,24.63
2018-12-29T20:15:06.483Z,25.60
2018-12-29T20:17:56.284Z,25.75
2018-12-29T20:20:44.388Z,25.32
2018-12-29T20:23:34.386Z,24.10
2018-12-29T20:26:22.469Z,23.05
2018-12-29T20:29:12.247Z,22.60
2018-12-29T20:32:00.591Z,22.98
2018-12-29T20:34:42.792Z,21.37
2018-12-29T20:37:24.251Z,22.30
2018-12-29T20:40:05.792Z,22.87
2018-12-29T20:42:46.355Z,22.85
2018-12-29T20:45:27.563Z,23.60
2018-12-29T20:48:10.380Z,23.83
2018-12-29T20:50:51.640Z,22.62
2018-12-29T20:53:32.228Z,20.30
2018-12-29T20:56:13.140Z,20.60
2018-12-29T20:58:54.438Z,19.82
2018-12-29T21:01:35.260Z,17.90
2018-12-29T21:04:16.256Z,18.30
2018-12-29T21:06:57.577Z,17.23
2018-12-29T21:09:37.999Z,17.27
2018-12-29T21:12:19.311Z,15.90
2018-12-29T21:15:00.154Z,13.03
2018-12-29T21:17:40.987Z,12.28
2018-12-29T21:20:22.262Z,10.60
2018-12-29T21:23:02.721Z,11.45
2018-12-29T21:25:44.062Z,11.20
2018-12-29T21:28:25.399Z,10.38
2018-12-29T21:31:06.199Z,10.05
2018-12-29T21:33:47.393Z,10.23
2018-12-29T21:36:28.383Z,9.90
2018-12-29T21:39:09.095Z,10.13
2018-12-29T21:41:49.854Z,9.18
2018-12-29T21:44:30.627Z,8.88
2018-12-29T21:47:12.259Z,9.48
2018-12-29T21:49:53.119Z,9.00
2018-12-29T21:52:34.158Z,8.60
2018-12-29T21:55:15.131Z,8.38
2018-12-29T21:57:55.806Z,7.53
2018-12-29T22:00:36.228Z,7.33
2018-12-29T22:03:16.913Z,7.50
2018-12-29T22:05:58.044Z,8.35
2018-12-29T22:08:38.864Z,7.75
2018-12-29T22:11:19.770Z,7.95
2018-12-29T22:14:01.249Z,8.15
2018-12-29T22:16:42.355Z,8.30
2018-12-29T22:19:24.033Z,8.23
2018-12-29T22:22:04.517Z,8.10
2018-12-29T22:24:45.435Z,8.53
2018-12-29T22:27:26.818Z,8.20
2018-12-29T22:30:07.551Z,8.78
2018-12-29T22:32:48.944Z,8.48
2018-12-29T22:35:30.050Z,8.67
2018-12-29T22:38:10.764Z,9.35
2018-12-29T22:40:51.408Z,8.80
2018-12-29T22:43:32.567Z,9.58
2018-12-29T22:46:13.383Z,8.97
2018-12-29T22:48:54.748Z,8.98
2018-12-29T22:51:35.396Z,9.53
2018-12-29T22:54:15.980Z,8.98
2018-12-29T22:56:57.224Z,9.48
2018-12-29T22:59:38.181Z,9.40
2018-12-29T23:02:19.234Z,9.08
2018-12-29T23:05:00.233Z,10.10
2018-12-29T23:07:40.884Z,9.90
2018-12-29T23:10:21.806Z,9.60
2018-12-29T23:13:04.076Z,10.03
2018-12-29T23:15:45.376Z,11.22
2018-12-29T23:18:25.939Z,10.18
2018-12-29T23:21:07.118Z,10.43
2018-12-29T23:23:47.832Z,10.98
2018-12-29T23:26:28.857Z,11.17
2018-12-29T23:29:09.656Z,10.38
2018-12-29T23:31:50.117Z,11.13
2018-12-29T23:34:30.806Z,11.60
2018-12-29T23:37:12.148Z,11.10
2018-12-29T23:39:53.216Z,11.50
2018-12-29T23:42:34.600Z,11.53
2018-12-29T23:45:15.891Z,11.40
2018-12-29T23:47:56.837Z,11.75
2018-12-29T23:50:38.004Z,12.03
2018-12-29T23:53:18.662Z,11.95
2018-12-29T23:56:00.084Z,12.10
2018-12-29T23:58:40.655Z,13.00
